Kayford, West Virginia
Current Conditions -  °F | °C
As of 12:54 AM on Saturday 20 Dec 2014 (Local Time) from KCRW Reporting Station
Overcast Overcast  
Wind Chill: -4°   Ceiling: 2100
Heat Index: -1°   Visibility: 10mi
Dew Point: -6°   Wind: 6mph
Humidity: 69%   Direction: 80°E
Pressure: 30.24"   Gusts: NA
Location:  38.0912°N, 81.4436°W
Report Text: KCRW 200554Z 08005KT 10SM OVC021 M01/M06 A3024 RMK AO2 SLP248 T10111061 11006 21011 58011
Loading
Personal Weather Stations






























Interactive Weather Map New forecast layout! Learn more

10-Day Weather Forecast

Advertisements
Track Severe Weather on mobile